VOBL Airport Information

Runway Information
Runway 09 Length 13123 ft width 148 ft
Elevation 3001 ft Threshold 0 ft Heading 92
Runway 27 Length 13123 ft Width 148 ft
Elevation 2917 ft Threshold 0 ft Heading 272
Airport Frequencies
Type APP Name Frequency 121.25 MHZ
Type ATIS Name Frequency 128.675 MHZ
Type DELIVERY Name Frequency 121.82 MHZ
Type SMC Name Frequency 121.65 MHZ
Type TOWER Name Frequency 124.35 MHZ
Airport Navaids
Airport Weather Information & NOTAM
ADDS - METARS form results

(2243 UTC 18 June 2019)
Data provider http://aviationweather.gov/metar/data/
 
METAR text: VOBL 182230Z 25010KT 6000 SCT012 SCT080 22/22 Q1011 NOSIG
Conditions at: VOBL (BENGALURU , IN) observed 2230 UTC 18 June 2019
Temperature: 22.0°C (72°F)
Dewpoint: 22.0°C (72°F) [RH = 100%]
Pressure (altimeter): 29.85 inches Hg (1011.0 mb)
Winds: from the WSW (250 degrees) at 12 MPH (10 knots; 5.1 m/s)
Visibility: 4 miles ( 6 km)
Ceiling: at least 12,000 feet AGL
Clouds: scattered clouds at 1200 feet AGL
scattered clouds at 8000 feet AGL
Weather: no significant weather observed at this time

METAR text: VOBL 182200Z 26011KT 6000 SCT012 SCT080 22/22 Q1011 NOSIG
Conditions at: VOBL (BENGALURU , IN) observed 2200 UTC 18 June 2019
Temperature: 22.0°C (72°F)
Dewpoint: 22.0°C (72°F) [RH = 100%]
Pressure (altimeter): 29.85 inches Hg (1011.0 mb)
Winds: from the W (260 degrees) at 13 MPH (11 knots; 5.7 m/s)
Visibility: 4 miles ( 6 km)
Ceiling: at least 12,000 feet AGL
Clouds: scattered clouds at 1200 feet AGL
scattered clouds at 8000 feet AGL
Weather: no significant weather observed at this time

Forecast for: VOBL (BENGALURU , IN)
Text: TAF VOBL 182000Z 1821/1906 27010KT 6000 SCT012 SCT080
Forecast period: 2100 UTC 18 June 2019 to 0600 UTC 19 June 2019
Forecast type: FROM: standard forecast or significant change
Winds: from the W (270 degrees) at 12 MPH (10 knots; 5.1 m/s)
Visibility: 4 miles (6 km)
Ceiling: at least 12,000 feet AGL
Clouds: scattered clouds at 1200 feet AGL
scattered clouds at 8000 feet AGL
Weather: no significant weather forecast for this period
Text: TEMPO 1900/1903 4000 DZ BR SCT010 SCT012
Forecast period: 0000 to 0300 UTC 19 June 2019
Forecast type: TEMPORARY: The following changes expected for less than half the time period
Visibility: 2.49 miles (4.01 km)
Ceiling: at least 12,000 feet AGL
Clouds: scattered clouds at 1000 feet AGL
scattered clouds at 1200 feet AGL
Weather: DZ BR  (moderate drizzle, mist)